Time;durP1;ratioP1;P1;durP2;ratioP2;P2;SDS_P1;SDS_P2;PMS_P1;PMS_P2;Temp;Humidity;BMP_temperature;BMP_pressure;BME280_temperature;BME280_humidity;BME280_pressure;Samples;Min_cycle;Max_cycle;Signal;HPM_P1;HPM_P2
2023/06/19 00:00:32;;;;;;;9.00;6.72;;;;;;;21.91;48.95;100643.31;5049022;28;20009;-75
2023/06/19 00:02:58;;;;;;;7.70;6.82;;;;;;;21.93;48.96;100635.66;5043038;28;20388;-75
2023/06/19 00:05:24;;;;;;;8.65;7.13;;;;;;;21.91;49.24;100635.09;5050285;28;20453;-75
2023/06/19 00:07:50;;;;;;;7.35;6.65;;;;;;;21.79;49.27;100630.75;5043642;28;20047;-74
2023/06/19 00:10:15;;;;;;;8.70;6.60;;;;;;;21.70;49.85;100620.66;5050607;28;20104;-74
2023/06/19 00:12:40;;;;;;;8.00;6.90;;;;;;;21.59;50.01;100620.63;5050090;28;20043;-74
2023/06/19 00:15:09;;;;;;;7.70;6.93;;;;;;;21.67;50.21;100616.53;5049410;28;20090;-74
2023/06/19 00:17:37;;;;;;;7.82;6.82;;;;;;;21.74;50.41;100617.06;5050859;28;20028;-75
2023/06/19 00:20:06;;;;;;;7.43;6.80;;;;;;;21.69;50.47;100616.25;5047700;28;20044;-75
2023/06/19 00:22:31;;;;;;;7.28;6.50;;;;;;;21.76;50.77;100616.78;5042759;28;20058;-75
2023/06/19 00:24:57;;;;;;;7.57;6.53;;;;;;;21.79;51.03;100621.69;5050533;28;20544;-74
2023/06/19 00:27:24;;;;;;;6.93;6.05;;;;;;;21.88;51.01;100622.78;5050379;28;20064;-75
2023/06/19 00:29:50;;;;;;;9.90;6.78;;;;;;;21.75;51.51;100626.94;5041393;28;20032;-74
2023/06/19 00:32:15;;;;;;;7.90;6.15;;;;;;;21.83;51.76;100633.75;5050803;28;20035;-75
2023/06/19 00:34:42;;;;;;;6.85;6.20;;;;;;;21.90;51.41;100634.25;5050396;28;20263;-75
2023/06/19 00:37:08;;;;;;;6.45;5.85;;;;;;;21.95;51.81;100638.94;5048158;28;20032;-75
2023/06/19 00:39:34;;;;;;;8.23;6.10;;;;;;;21.99;51.62;100636.44;5050797;28;20025;-75
2023/06/19 00:41:59;;;;;;;9.82;5.97;;;;;;;22.13;51.55;100637.47;5041285;28;20022;-75
2023/06/19 00:44:24;;;;;;;7.28;5.53;;;;;;;22.17;51.40;100632.25;5050222;28;20519;-75
2023/06/19 00:46:58;;;;;;;6.40;5.80;;;;;;;22.27;51.18;100644.00;5050241;28;20457;-76
2023/06/19 00:49:24;;;;;;;6.97;6.13;;;;;;;22.34;50.97;100654.66;5039636;28;20075;-75
2023/06/19 00:51:51;;;;;;;8.50;5.80;;;;;;;22.35;50.76;100653.56;5023636;28;20056;-76
2023/06/19 00:54:17;;;;;;;7.00;6.00;;;;;;;22.30;50.84;100663.75;5039756;28;20029;-75
2023/06/19 00:56:42;;;;;;;6.95;5.60;;;;;;;22.37;50.92;100659.59;5026037;28;20117;-75
2023/06/19 00:59:12;;;;;;;8.80;6.00;;;;;;;22.37;50.68;100656.03;5041814;28;20021;-74
2023/06/19 01:01:37;;;;;;;7.72;5.05;;;;;;;22.42;50.43;100661.50;5016666;28;20111;-75
2023/06/19 01:04:03;;;;;;;7.32;5.35;;;;;;;22.41;50.63;100665.34;5030808;28;20067;-75
2023/06/19 01:06:38;;;;;;;5.78;5.18;;;;;;;22.42;50.36;100669.72;5046503;28;20090;-75
2023/06/19 01:09:05;;;;;;;6.13;5.55;;;;;;;22.41;50.69;100666.16;5013923;28;20025;-74
2023/06/19 01:11:33;;;;;;;5.95;5.35;;;;;;;22.39;50.71;100667.56;5002582;28;20090;-75
2023/06/19 01:14:00;;;;;;;6.30;4.97;;;;;;;22.33;50.57;100671.41;5035380;28;20033;-75
2023/06/19 01:16:26;;;;;;;7.78;4.93;;;;;;;22.29;50.76;100662.09;5035555;28;20392;-75
2023/06/19 01:18:51;;;;;;;7.35;5.40;;;;;;;22.33;50.78;100663.19;5023703;28;20041;-76
2023/06/19 01:21:18;;;;;;;6.65;5.32;;;;;;;22.35;50.35;100671.94;5032346;28;20366;-75
2023/06/19 01:23:43;;;;;;;5.80;5.18;;;;;;;22.31;50.47;100668.97;5053510;28;20028;-74
2023/06/19 01:26:09;;;;;;;5.70;5.10;;;;;;;22.27;50.50;100671.41;5053061;28;20022;-75
2023/06/19 01:28:38;;;;;;;7.20;5.53;;;;;;;22.19;50.76;100677.50;5044682;28;20033;-75
2023/06/19 01:31:12;;;;;;;5.47;4.97;;;;;;;22.19;50.60;100672.00;5052656;28;20025;-75
2023/06/19 01:33:38;;;;;;;5.97;5.38;;;;;;;22.16;50.67;100675.31;5017317;28;20037;-75
2023/06/19 01:36:03;;;;;;;6.25;5.13;;;;;;;22.11;50.88;100675.31;5027079;28;20041;-74
2023/06/19 01:38:29;;;;;;;5.63;5.13;;;;;;;21.96;51.00;100670.72;5032494;28;20362;-76
2023/06/19 01:40:54;;;;;;;5.20;4.70;;;;;;;22.02;50.80;100672.34;5053554;28;20033;-76
2023/06/19 01:43:20;;;;;;;6.55;5.30;;;;;;;21.95;50.92;100671.81;5044767;28;20112;-76
2023/06/19 01:45:45;;;;;;;6.10;4.97;;;;;;;21.92;50.92;100675.13;5029967;28;20029;-73
2023/06/19 01:48:10;;;;;;;5.03;4.50;;;;;;;21.93;50.96;100671.28;5024355;28;20036;-76
2023/06/19 01:50:36;;;;;;;5.60;5.03;;;;;;;21.87;50.91;100678.69;5032991;28;20025;-76
2023/06/19 01:53:01;;;;;;;6.38;4.85;;;;;;;21.84;51.26;100670.19;5051649;28;20045;-76
2023/06/19 01:55:27;;;;;;;5.97;5.07;;;;;;;21.77;51.31;100678.69;5045116;28;20495;-76
2023/06/19 01:57:52;;;;;;;6.25;5.13;;;;;;;21.70;51.77;100665.28;5051549;28;20037;-76
2023/06/19 02:00:18;;;;;;;5.72;5.20;;;;;;;21.62;51.57;100683.09;5051974;28;20033;-76
2023/06/19 02:02:43;;;;;;;6.63;5.22;;;;;;;21.55;52.05;100693.47;5045480;28;20043;-76
2023/06/19 02:05:09;;;;;;;6.20;5.40;;;;;;;21.46;52.12;100690.47;5051561;28;20021;-75
2023/06/19 02:07:34;;;;;;;6.13;5.30;;;;;;;21.43;52.41;100693.78;5049990;28;20043;-76
2023/06/19 02:09:59;;;;;;;5.45;4.95;;;;;;;21.31;52.55;100694.06;5045889;28;20033;-76
2023/06/19 02:12:25;;;;;;;5.50;4.75;;;;;;;21.11;52.89;100694.03;5051280;28;20055;-76
2023/06/19 02:14:50;;;;;;;8.25;5.53;;;;;;;21.12;53.19;100691.00;5050935;28;20035;-75
2023/06/19 02:17:15;;;;;;;6.65;5.28;;;;;;;21.13;52.83;100697.31;5052860;28;20033;-76
2023/06/19 02:19:41;;;;;;;6.35;5.60;;;;;;;21.07;53.35;100695.66;5043207;28;20484;-76
2023/06/19 02:22:09;;;;;;;6.25;5.38;;;;;;;21.01;52.97;100701.13;5043164;28;20036;-76
2023/06/19 02:24:39;;;;;;;5.55;5.05;;;;;;;20.86;53.66;100699.19;5052209;28;20025;-75
2023/06/19 02:27:05;;;;;;;6.38;5.30;;;;;;;20.78;54.11;100696.97;5044417;28;20078;-75
2023/06/19 02:29:30;;;;;;;8.32;5.50;;;;;;;20.72;54.23;100709.78;5043499;28;20025;-76
2023/06/19 02:31:56;;;;;;;5.90;5.30;;;;;;;20.69;53.80;100702.09;5052077;28;20029;-76
2023/06/19 02:34:24;;;;;;;6.32;5.20;;;;;;;20.73;53.93;100707.88;5051973;28;20044;-76
2023/06/19 02:36:49;;;;;;;6.82;4.82;;;;;;;20.72;54.33;100709.78;5041657;28;20024;-76
2023/06/19 02:39:15;;;;;;;6.53;5.55;;;;;;;20.68;54.00;100711.41;5051645;28;20067;-76
2023/06/19 02:41:43;;;;;;;6.35;5.20;;;;;;;20.66;54.65;100719.06;5042256;28;20025;-75
2023/06/19 02:44:08;;;;;;;6.15;5.25;;;;;;;20.65;54.84;100717.41;5036288;28;20029;-75
2023/06/19 02:46:33;;;;;;;6.68;5.07;;;;;;;20.63;54.98;100722.34;5052257;28;20028;-74
2023/06/19 02:49:00;;;;;;;5.82;4.65;;;;;;;20.65;54.69;100725.59;5042698;28;20031;-74
2023/06/19 02:51:26;;;;;;;5.47;4.88;;;;;;;20.62;54.98;100728.91;5043670;28;20091;-74
2023/06/19 02:53:51;;;;;;;6.00;5.40;;;;;;;20.62;55.26;100736.28;5050119;28;20385;-75
2023/06/19 02:56:16;;;;;;;5.85;5.25;;;;;;;20.63;55.32;100735.19;5050851;28;20025;-75
2023/06/19 02:58:42;;;;;;;5.88;5.28;;;;;;;20.63;55.49;100732.44;5051464;28;20099;-75
2023/06/19 03:01:08;;;;;;;6.75;5.40;;;;;;;20.65;55.78;100733.00;5041983;28;20101;-74
2023/06/19 03:03:37;;;;;;;6.30;5.30;;;;;;;20.60;56.47;100737.34;5050628;28;20469;-75
2023/06/19 03:06:04;;;;;;;7.15;5.20;;;;;;;20.61;56.43;100732.72;5042673;28;20060;-74
2023/06/19 03:08:30;;;;;;;5.90;4.72;;;;;;;20.57;56.83;100748.03;5051710;28;20078;-74
2023/06/19 03:10:55;;;;;;;5.15;4.65;;;;;;;20.58;56.93;100738.72;5041292;28;20037;-73
2023/06/19 03:13:20;;;;;;;5.68;5.00;;;;;;;20.59;57.26;100743.91;5042157;28;20496;-74
2023/06/19 03:15:46;;;;;;;6.30;4.85;;;;;;;20.53;57.28;100752.38;5051397;28;20045;-74
2023/06/19 03:18:12;;;;;;;7.10;4.97;;;;;;;20.53;57.76;100750.47;5047787;28;20029;-75
2023/06/19 03:20:38;;;;;;;5.80;4.95;;;;;;;20.52;57.48;100748.00;5047064;28;20534;-75
2023/06/19 03:23:03;;;;;;;5.07;4.38;;;;;;;20.47;58.12;100746.06;5051379;28;20029;-75
2023/06/19 03:25:34;;;;;;;6.15;5.18;;;;;;;20.33;58.35;100753.91;5050660;28;20025;-75
2023/06/19 03:28:00;;;;;;;5.30;4.75;;;;;;;20.35;58.52;100762.66;5049402;28;20536;-75
2023/06/19 03:30:25;;;;;;;5.40;4.50;;;;;;;20.33;58.71;100773.03;5051149;28;20025;-75
2023/06/19 03:32:51;;;;;;;5.05;4.55;;;;;;;20.29;59.48;100761.00;5047753;28;20037;-75
2023/06/19 03:35:16;;;;;;;5.85;4.40;;;;;;;20.09;59.90;100761.69;5050066;28;20443;-74
2023/06/19 03:37:41;;;;;;;5.00;4.05;;;;;;;20.15;59.98;100771.59;5050892;28;20032;-75
2023/06/19 03:40:13;;;;;;;5.45;4.53;;;;;;;19.93;60.67;100763.50;5048201;28;20017;-75
2023/06/19 03:42:38;;;;;;;6.80;4.68;;;;;;;19.76;61.33;100769.91;5044927;28;20469;-74
2023/06/19 03:45:04;;;;;;;5.40;4.80;;;;;;;19.75;61.86;100779.19;5049437;28;20031;-74
2023/06/19 03:47:29;;;;;;;6.45;4.50;;;;;;;19.66;62.30;100769.81;5042998;28;20447;-74
2023/06/19 03:49:54;;;;;;;6.35;4.80;;;;;;;19.71;62.34;100778.06;5042388;28;20373;-74
2023/06/19 03:52:20;;;;;;;5.88;4.38;;;;;;;19.75;62.32;100784.66;5049577;28;20040;-75
2023/06/19 03:54:45;;;;;;;6.10;4.47;;;;;;;19.75;62.56;100784.66;5049729;28;20017;-74
2023/06/19 03:57:10;;;;;;;5.20;4.68;;;;;;;19.61;63.00;100784.25;5049845;28;20032;-74
2023/06/19 03:59:36;;;;;;;7.05;4.55;;;;;;;19.57;63.50;100793.22;5045820;28;20021;-74
2023/06/19 04:02:01;;;;;;;6.88;4.53;;;;;;;19.49;63.83;100787.16;5039663;28;20036;-75
2023/06/19 04:04:26;;;;;;;6.45;4.57;;;;;;;19.39;64.63;100803.44;5049634;28;20039;-74
2023/06/19 04:06:52;;;;;;;4.70;4.00;;;;;;;19.31;64.97;100798.44;5048810;28;20039;-77
2023/06/19 04:09:17;;;;;;;5.10;3.75;;;;;;;19.31;65.26;100801.16;5047826;28;20025;-74
2023/06/19 04:11:42;;;;;;;5.55;4.00;;;;;;;19.19;65.58;100796.69;5041464;28;20017;-75
2023/06/19 04:14:10;;;;;;;5.50;4.10;;;;;;;19.28;65.71;100797.03;5048964;28;20401;-75
2023/06/19 04:16:36;;;;;;;5.35;3.90;;;;;;;19.16;66.11;100804.53;5041730;28;20162;-73
2023/06/19 04:19:01;;;;;;;5.82;3.88;;;;;;;19.28;65.88;100802.50;5043462;28;20477;-74
2023/06/19 04:21:27;;;;;;;6.78;3.80;;;;;;;19.12;66.43;100815.16;5039891;28;20030;-75
2023/06/19 04:23:52;;;;;;;6.05;4.03;;;;;;;19.12;66.67;100812.41;5045989;28;20041;-74
2023/06/19 04:26:18;;;;;;;4.80;3.72;;;;;;;19.24;66.29;100812.28;5046407;28;20384;-75
2023/06/19 04:28:44;;;;;;;6.15;3.90;;;;;;;19.34;65.83;100817.84;5043420;28;20051;-75
2023/06/19 04:31:09;;;;;;;5.03;3.80;;;;;;;19.49;65.02;100814.44;5043562;28;20458;-75
2023/06/19 04:33:35;;;;;;;5.05;3.60;;;;;;;19.56;65.29;100827.88;5031586;28;20041;-75
2023/06/19 04:36:00;;;;;;;4.30;3.65;;;;;;;19.87;64.40;100825.47;5049398;28;20531;-75
2023/06/19 04:38:25;;;;;;;3.97;3.58;;;;;;;20.24;63.16;100832.84;5050498;28;20476;-75
2023/06/19 04:40:51;;;;;;;5.47;3.72;;;;;;;20.41;62.62;100838.19;5049609;28;20496;-75
2023/06/19 04:43:17;;;;;;;5.35;3.63;;;;;;;20.85;61.03;100849.91;5052964;28;20033;-75
2023/06/19 04:45:42;;;;;;;5.82;3.70;;;;;;;21.33;59.37;100853.41;5054783;28;20032;-75
2023/06/19 04:48:07;;;;;;;4.40;3.72;;;;;;;21.47;59.06;100855.63;5053076;28;20170;-75
2023/06/19 04:50:35;;;;;;;4.53;3.92;;;;;;;21.56;58.96;100848.50;5053223;28;20099;-75
2023/06/19 04:53:01;;;;;;;3.92;3.53;;;;;;;22.01;57.77;100842.56;5045903;28;20029;-75
2023/06/19 04:55:26;;;;;;;4.85;4.03;;;;;;;21.95;57.78;100850.78;5049772;28;20493;-76
2023/06/19 04:57:52;;;;;;;4.30;3.90;;;;;;;22.08;57.19;100859.53;5045322;28;20025;-75
2023/06/19 05:00:19;;;;;;;4.47;4.07;;;;;;;21.52;58.94;100866.59;5054187;28;20021;-75
2023/06/19 05:02:46;;;;;;;4.13;3.70;;;;;;;21.12;60.06;100857.16;5042187;28;20031;-76
2023/06/19 05:05:12;;;;;;;8.23;4.18;;;;;;;20.94;60.95;100861.19;5042005;28;20026;-76
2023/06/19 05:07:38;;;;;;;4.18;3.65;;;;;;;21.23;60.42;100866.25;5053076;28;20035;-76
2023/06/19 05:10:03;;;;;;;4.22;3.80;;;;;;;21.10;60.38;100867.56;5052005;28;20087;-75
2023/06/19 05:12:29;;;;;;;6.07;4.20;;;;;;;21.14;60.90;100868.69;5053275;28;20451;-75
2023/06/19 05:14:54;;;;;;;4.82;4.03;;;;;;;21.26;60.61;100872.00;5045752;28;20384;-75
2023/06/19 05:17:19;;;;;;;5.55;4.45;;;;;;;21.74;58.92;100868.28;5052644;28;20036;-75
2023/06/19 05:19:45;;;;;;;4.85;4.35;;;;;;;22.32;57.27;100869.97;5050396;28;20029;-76
2023/06/19 05:22:10;;;;;;;5.82;4.28;;;;;;;22.13;58.01;100876.00;5051344;28;20044;-76
2023/06/19 05:24:35;;;;;;;6.95;4.10;;;;;;;22.76;56.05;100874.84;5043650;28;20384;-77
2023/06/19 05:27:01;;;;;;;5.55;4.38;;;;;;;22.63;56.52;100875.41;5041173;28;20084;-76
2023/06/19 05:29:26;;;;;;;5.25;4.57;;;;;;;22.30;57.74;100873.00;5045941;28;20025;-75
2023/06/19 05:31:54;;;;;;;6.00;4.30;;;;;;;23.01;55.40;100868.47;5044721;28;20029;-76
2023/06/19 05:34:20;;;;;;;4.65;4.00;;;;;;;23.15;54.99;100878.81;5053065;28;20033;-76
2023/06/19 05:36:46;;;;;;;5.57;4.05;;;;;;;23.13;55.43;100878.28;5052889;28;20055;-76
2023/06/19 05:39:12;;;;;;;4.57;4.18;;;;;;;23.51;54.55;100878.66;5049842;28;20036;-76
2023/06/19 05:41:38;;;;;;;4.60;4.00;;;;;;;24.16;52.56;100871.38;5052403;28;20134;-76
2023/06/19 05:44:03;;;;;;;6.53;4.43;;;;;;;24.22;52.12;100876.53;5053222;28;20032;-77
2023/06/19 05:46:28;;;;;;;5.00;4.15;;;;;;;24.39;52.58;100889.03;5044571;28;20017;-76
2023/06/19 05:48:57;;;;;;;5.10;4.60;;;;;;;24.58;51.71;100900.13;5052324;28;20036;-76
2023/06/19 05:51:22;;;;;;;4.75;4.18;;;;;;;24.55;51.74;100899.88;5049484;28;20025;-76
2023/06/19 05:53:49;;;;;;;4.75;4.15;;;;;;;24.17;52.71;100906.00;5041615;28;20031;-76
2023/06/19 05:56:14;;;;;;;4.70;4.30;;;;;;;23.28;55.44;100900.22;5045958;28;20020;-76
2023/06/19 05:58:40;;;;;;;6.80;4.38;;;;;;;22.44;57.78;100902.63;5051392;28;20175;-76
2023/06/19 06:01:06;;;;;;;5.28;4.25;;;;;;;21.75;60.31;100905.56;5050186;28;20029;-76
2023/06/19 06:03:32;;;;;;;6.32;4.85;;;;;;;21.19;62.21;100907.00;5047996;28;20029;-76
2023/06/19 06:06:02;;;;;;;5.28;4.78;;;;;;;21.00;62.88;100907.47;5043044;28;20033;-76
2023/06/19 06:08:29;;;;;;;4.80;4.40;;;;;;;20.69;64.38;100900.97;5053372;28;20472;-76
2023/06/19 06:10:54;;;;;;;4.95;4.45;;;;;;;20.22;65.79;100905.28;5052523;28;20033;-76
2023/06/19 06:13:20;;;;;;;4.95;4.45;;;;;;;20.24;66.29;100916.78;5051010;28;20086;-76
2023/06/19 06:15:48;;;;;;;6.10;4.38;;;;;;;20.13;66.71;100922.16;5051634;28;20041;-76
2023/06/19 06:18:13;;;;;;;5.68;4.75;;;;;;;20.15;66.55;100919.97;5050639;28;20037;-76
2023/06/19 06:20:39;;;;;;;5.22;4.53;;;;;;;20.12;66.90;100927.88;5042834;28;20377;-76
2023/06/19 06:23:05;;;;;;;6.65;4.95;;;;;;;20.15;66.73;100922.72;5044961;28;20025;-76
2023/06/19 06:25:31;;;;;;;7.03;4.47;;;;;;;20.32;66.70;100929.97;5045338;28;20033;-76
2023/06/19 06:27:56;;;;;;;6.45;4.85;;;;;;;20.29;66.87;100935.97;5048783;28;20033;-76
2023/06/19 06:30:23;;;;;;;6.00;4.97;;;;;;;20.54;65.88;100938.09;5051473;28;20477;-76
2023/06/19 06:32:48;;;;;;;6.70;5.15;;;;;;;20.64;65.38;100928.28;5050840;28;20083;-76
2023/06/19 06:35:16;;;;;;;5.80;5.20;;;;;;;20.95;64.51;100928.50;5042263;28;20041;-73
2023/06/19 06:37:43;;;;;;;6.03;5.43;;;;;;;21.04;63.95;100935.16;5052990;28;20031;-76
2023/06/19 06:40:09;;;;;;;6.43;4.97;;;;;;;21.23;63.42;100932.75;5043370;28;20118;-76
2023/06/19 06:42:35;;;;;;;5.47;4.68;;;;;;;22.63;59.79;100936.63;5050208;28;20052;-76
2023/06/19 06:45:00;;;;;;;5.50;5.00;;;;;;;23.51;56.21;100932.78;5045048;28;20028;-76
2023/06/19 06:47:25;;;;;;;7.20;5.18;;;;;;;23.89;55.26;100933.13;5041352;28;20039;-76
2023/06/19 06:49:51;;;;;;;7.63;5.65;;;;;;;24.59;53.31;100934.78;5045438;28;20021;-76
2023/06/19 06:52:19;;;;;;;7.20;5.68;;;;;;;24.55;53.25;100946.66;5053190;28;20464;-76
2023/06/19 06:54:44;;;;;;;9.40;5.40;;;;;;;24.60;53.58;100944.69;5036081;28;20029;-76
2023/06/19 06:57:10;;;;;;;6.05;5.00;;;;;;;24.18;54.04;100949.72;5057834;28;20032;-75
2023/06/19 06:59:35;;;;;;;5.50;4.78;;;;;;;23.84;55.47;100952.38;5055147;28;20028;-76
2023/06/19 07:02:00;;;;;;;5.97;5.20;;;;;;;23.31;56.65;100951.84;5051407;28;20464;-76
2023/06/19 07:04:26;;;;;;;7.32;5.57;;;;;;;22.44;58.73;100965.72;5042478;28;20107;-76
2023/06/19 07:06:51;;;;;;;7.45;5.35;;;;;;;22.36;59.45;100956.88;5050836;28;20033;-76
2023/06/19 07:09:17;;;;;;;5.90;5.38;;;;;;;22.30;59.49;100955.25;5050779;28;20104;-76
2023/06/19 07:11:45;;;;;;;6.07;5.30;;;;;;;22.08;60.46;100971.94;5042610;28;20071;-77
2023/06/19 07:14:11;;;;;;;7.22;5.88;;;;;;;21.99;60.94;100979.06;5050959;28;20040;-76
2023/06/19 07:16:36;;;;;;;6.20;5.30;;;;;;;21.85;61.46;100970.53;5042483;28;20062;-76
2023/06/19 07:19:01;;;;;;;6.43;5.32;;;;;;;21.55;62.76;100975.59;5046696;28;20028;-75
2023/06/19 07:21:31;;;;;;;6.00;5.38;;;;;;;21.35;63.66;100985.41;5045033;28;20065;-76
2023/06/19 07:23:56;;;;;;;5.70;5.20;;;;;;;21.51;63.19;100980.81;5042148;28;20026;-76
2023/06/19 07:26:21;;;;;;;5.72;5.13;;;;;;;21.38;63.29;100983.19;5031109;28;20025;-76
2023/06/19 07:28:47;;;;;;;7.28;5.20;;;;;;;21.25;63.89;100979.88;5050280;28;20025;-76
2023/06/19 07:31:12;;;;;;;6.05;4.78;;;;;;;21.38;63.04;100989.53;5050485;28;20470;-76
2023/06/19 07:33:37;;;;;;;6.68;5.50;;;;;;;21.32;63.35;100996.88;5050474;28;20028;-76
2023/06/19 07:36:03;;;;;;;9.23;5.70;;;;;;;21.27;63.61;100999.59;5042884;28;20043;-76
2023/06/19 07:38:28;;;;;;;6.50;5.40;;;;;;;21.05;64.44;100997.81;5048416;28;20479;-76
2023/06/19 07:40:54;;;;;;;6.20;5.60;;;;;;;20.98;64.97;100997.25;5050677;28;20036;-76
2023/06/19 07:43:22;;;;;;;6.45;5.68;;;;;;;21.24;63.58;100999.31;5042301;28;20099;-76
2023/06/19 07:45:47;;;;;;;6.38;5.30;;;;;;;21.31;63.68;101000.72;5042515;28;20203;-76
2023/06/19 07:48:13;;;;;;;6.75;5.80;;;;;;;21.41;63.43;100996.38;5050328;28;20111;-76
2023/06/19 07:50:38;;;;;;;6.05;5.13;;;;;;;21.45;63.41;100992.81;5046330;28;20036;-75
2023/06/19 07:53:03;;;;;;;6.15;5.55;;;;;;;21.42;63.15;100996.13;5045865;28;20465;-76
2023/06/19 07:55:29;;;;;;;6.70;5.55;;;;;;;21.31;63.48;100995.25;5048690;28;20043;-76
2023/06/19 07:57:56;;;;;;;5.60;5.10;;;;;;;21.50;63.35;101000.25;5041952;28;20491;-76
2023/06/19 08:00:22;;;;;;;7.13;5.25;;;;;;;21.65;62.54;101000.34;5050648;28;20044;-76
2023/06/19 08:02:48;;;;;;;7.60;4.97;;;;;;;21.64;62.44;101004.19;5040411;28;20093;-76
2023/06/19 08:05:13;;;;;;;6.65;5.57;;;;;;;21.85;61.85;101015.22;5047896;28;20384;-76
2023/06/19 08:07:39;;;;;;;7.55;4.90;;;;;;;21.83;62.03;101011.91;5050837;28;20035;-76
2023/06/19 08:10:05;;;;;;;8.05;4.78;;;;;;;21.92;61.38;101004.81;5045184;28;20036;-76
2023/06/19 08:12:33;;;;;;;6.13;4.93;;;;;;;21.88;61.76;101020.16;5045974;28;20043;-76
2023/06/19 08:14:59;;;;;;;7.50;5.00;;;;;;;21.86;61.65;101024.25;5040782;28;20090;-76
2023/06/19 08:17:24;;;;;;;5.00;4.50;;;;;;;21.89;61.36;101020.97;5046867;28;20049;-75
2023/06/19 08:19:49;;;;;;;4.00;3.70;;;;;;;22.32;60.37;101029.88;5042970;28;20026;-76
2023/06/19 08:22:15;;;;;;;6.18;4.47;;;;;;;22.13;60.84;101026.78;5050906;28;20108;-76
2023/06/19 08:24:40;;;;;;;4.60;4.20;;;;;;;22.22;60.18;101029.81;5032379;28;20032;-76
2023/06/19 08:27:09;;;;;;;5.18;4.20;;;;;;;21.94;61.19;101024.56;5041736;28;20040;-76
2023/06/19 08:29:34;;;;;;;6.43;4.03;;;;;;;22.22;60.08;101035.31;5049335;28;20021;-76
2023/06/19 08:32:01;;;;;;;8.55;4.47;;;;;;;22.12;59.89;101025.16;5053566;28;20029;-76
2023/06/19 08:34:27;;;;;;;4.63;3.85;;;;;;;22.50;58.85;101025.78;5044947;28;20039;-76
2023/06/19 08:36:52;;;;;;;5.55;4.10;;;;;;;22.32;57.98;101018.06;5046491;28;20496;-76
2023/06/19 08:39:20;;;;;;;4.47;3.75;;;;;;;22.29;58.96;101027.66;5032115;28;20034;-76
2023/06/19 08:41:45;;;;;;;4.57;3.67;;;;;;;22.56;58.22;101027.44;5049381;28;20112;-76
2023/06/19 08:44:10;;;;;;;5.53;3.90;;;;;;;23.20;56.93;101024.38;5054554;28;20047;-76
2023/06/19 08:46:40;;;;;;;6.90;3.70;;;;;;;23.75;56.01;101021.72;5054004;28;20029;-76
2023/06/19 08:49:06;;;;;;;4.10;3.58;;;;;;;24.88;51.68;101019.34;5044342;28;20485;-76
2023/06/19 08:51:32;;;;;;;6.90;4.10;;;;;;;24.77;51.94;101024.13;5044985;28;20037;-76
2023/06/19 08:54:01;;;;;;;6.38;4.22;;;;;;;24.57;52.19;101016.81;5050122;28;20052;-76
2023/06/19 08:56:26;;;;;;;4.82;3.80;;;;;;;24.74;51.95;101018.38;5044375;28;20021;-76
2023/06/19 08:58:52;;;;;;;4.20;3.50;;;;;;;24.76;51.65;101024.41;5054377;28;20021;-76
2023/06/19 09:01:18;;;;;;;4.93;3.90;;;;;;;24.53;53.06;101032.28;5045458;28;20392;-75
2023/06/19 09:03:46;;;;;;;4.70;3.75;;;;;;;25.05;51.09;101031.88;5044952;28;20028;-75
2023/06/19 09:06:13;;;;;;;4.70;4.22;;;;;;;25.48;49.99;101034.72;5036703;28;20028;-75
2023/06/19 09:08:38;;;;;;;6.32;4.93;;;;;;;25.39;49.02;101039.22;5016221;28;20032;-75
2023/06/19 09:11:04;;;;;;;7.40;4.72;;;;;;;25.73;48.76;101049.31;5053467;28;20025;-76
2023/06/19 09:13:30;;;;;;;5.55;4.30;;;;;;;25.05;50.71;101037.38;5053417;28;20025;-75
2023/06/19 09:15:59;;;;;;;6.38;5.60;;;;;;;25.38;49.34;101037.56;5044639;28;20492;-75
2023/06/19 09:18:25;;;;;;;6.78;6.03;;;;;;;26.00;46.75;101031.28;5044804;28;20067;-75
2023/06/19 09:20:52;;;;;;;5.25;4.75;;;;;;;27.37;42.12;101033.22;5052023;28;20424;-75
2023/06/19 09:23:17;;;;;;;9.75;5.45;;;;;;;27.01;41.16;101042.97;5052560;28;20037;-77
2023/06/19 09:25:52;;;;;;;6.63;5.25;;;;;;;27.38;39.68;101049.47;5048863;28;20028;-75
2023/06/19 09:28:18;;;;;;;8.07;6.45;;;;;;;26.80;41.54;101042.53;5042081;28;20047;-75
2023/06/19 09:31:02;;;;;;;6.75;6.10;;;;;;;26.64;42.96;101047.47;5052738;28;20425;-75
2023/06/19 09:33:32;;;;;;;9.20;8.32;;;;;;;26.48;44.01;101046.91;5051171;28;20033;-75
2023/06/19 09:35:58;;;;;;;7.75;7.05;;;;;;;26.66;44.59;101058.22;5045960;28;20426;-74
2023/06/19 09:38:25;;;;;;;9.05;8.02;;;;;;;27.06;43.17;101059.47;5043318;28;20483;-75
2023/06/19 09:40:51;;;;;;;10.50;9.60;;;;;;;26.76;44.06;101061.63;5036926;28;20036;-75
2023/06/19 09:43:20;;;;;;;9.60;7.90;;;;;;;27.28;43.29;101063.50;5053336;28;20021;-75
2023/06/19 09:45:47;;;;;;;9.20;8.18;;;;;;;28.57;39.92;101069.09;5046768;28;20087;-75
2023/06/19 09:48:13;;;;;;;8.27;7.45;;;;;;;29.20;39.42;101076.69;5015511;28;20531;-75
2023/06/19 09:50:38;;;;;;;9.15;8.25;;;;;;;28.76;39.97;101073.66;5008233;28;20034;-75
2023/06/19 09:53:04;;;;;;;9.68;8.77;;;;;;;28.20;41.04;101076.59;5008329;28;20033;-75
2023/06/19 09:55:30;;;;;;;9.20;8.20;;;;;;;28.70;39.29;101072.09;5040707;28;20505;-75
2023/06/19 09:57:59;;;;;;;8.30;7.40;;;;;;;28.36;38.62;101067.94;5033988;28;20032;-75
2023/06/19 10:00:30;;;;;;;9.88;6.82;;;;;;;29.20;37.88;101063.63;5051541;28;20488;-75
2023/06/19 10:03:00;;;;;;;8.73;6.90;;;;;;;30.44;34.65;101069.47;5026944;28;20373;-75
2023/06/19 10:05:31;;;;;;;8.13;6.78;;;;;;;30.19;35.02;101077.47;5025611;28;20492;-75
2023/06/19 10:07:59;;;;;;;7.80;6.45;;;;;;;30.34;35.61;101087.28;5041084;28;20076;-75
2023/06/19 10:10:26;;;;;;;8.85;7.57;;;;;;;29.38;37.29;101093.44;5047311;28;20075;-75
2023/06/19 10:12:56;;;;;;;9.85;8.50;;;;;;;28.67;38.14;101090.19;5051447;28;20064;-76
2023/06/19 10:15:26;;;;;;;8.70;7.82;;;;;;;29.75;37.00;101089.31;5045336;28;20038;-76
2023/06/19 10:17:51;;;;;;;9.52;7.78;;;;;;;28.88;37.56;101096.06;5032978;28;20544;-76
2023/06/19 10:20:31;;;;;;;9.98;8.52;;;;;;;28.76;38.07;101098.59;5050746;28;20120;-76
2023/06/19 10:23:20;;;;;;;11.07;8.95;;;;;;;28.77;38.91;101099.41;5051271;28;20053;-76
2023/06/19 10:25:46;;;;;;;11.20;8.90;;;;;;;28.21;39.48;101105.94;5043041;28;20073;-76
2023/06/19 10:28:31;;;;;;;8.73;7.93;;;;;;;29.19;37.49;101105.53;5051936;28;20107;-76
2023/06/19 10:31:04;;;;;;;9.02;8.13;;;;;;;29.19;37.53;101100.00;5043496;28;20108;-76
2023/06/19 10:33:33;;;;;;;10.35;8.00;;;;;;;29.13;37.49;101101.25;5050684;28;20027;-76
2023/06/19 10:36:02;;;;;;;9.32;8.43;;;;;;;29.94;36.00;101097.34;5044108;28;20504;-75
2023/06/19 10:38:28;;;;;;;8.88;8.13;;;;;;;29.79;35.47;101090.31;5050983;28;20033;-75
2023/06/19 10:40:53;;;;;;;8.07;7.00;;;;;;;30.75;33.44;101090.72;5042100;28;20029;-76
2023/06/19 10:43:20;;;;;;;7.25;6.65;;;;;;;29.82;33.74;101082.47;5044200;28;20361;-75
2023/06/19 10:45:45;;;;;;;8.35;7.65;;;;;;;29.44;34.75;101081.03;5051296;28;20025;-75
2023/06/19 10:48:11;;;;;;;7.55;6.78;;;;;;;30.25;34.44;101093.69;5050473;28;20035;-75
2023/06/19 10:50:38;;;;;;;9.15;7.80;;;;;;;30.36;34.97;101094.16;5046664;28;20033;-75
2023/06/19 10:53:03;;;;;;;7.90;7.15;;;;;;;30.05;34.15;101094.31;5041462;28;20037;-75
2023/06/19 10:55:29;;;;;;;10.32;7.90;;;;;;;30.17;34.03;101088.91;5049939;28;20020;-75
2023/06/19 10:57:54;;;;;;;8.73;7.78;;;;;;;30.58;34.25;101095.16;5036902;28;20065;-75
2023/06/19 11:00:26;;;;;;;9.68;7.88;;;;;;;29.87;34.60;101085.09;5040916;28;20041;-75
2023/06/19 11:02:52;;;;;;;7.10;6.13;;;;;;;31.39;33.33;101091.91;5044293;28;20052;-75
2023/06/19 11:05:19;;;;;;;7.97;7.10;;;;;;;32.31;30.34;101089.56;5046188;28;20036;-76
2023/06/19 11:07:53;;;;;;;8.48;7.70;;;;;;;30.83;31.91;101092.69;5043537;28;20033;-75
2023/06/19 11:10:20;;;;;;;8.15;7.30;;;;;;;29.97;34.31;101087.59;5039099;28;20110;-75
2023/06/19 11:12:45;;;;;;;7.80;6.88;;;;;;;30.14;34.19;101086.00;5044933;28;20499;-75
2023/06/19 11:15:14;;;;;;;9.57;7.22;;;;;;;31.06;32.49;101086.91;5048411;28;20049;-75
2023/06/19 11:17:39;;;;;;;6.93;6.30;;;;;;;32.40;30.44;101072.78;5040856;28;20021;-76
2023/06/19 11:20:09;;;;;;;7.88;6.78;;;;;;;31.09;32.78;101078.72;5043986;28;20037;-75